Time;durP1;ratioP1;P1;durP2;ratioP2;P2;SDS_P1;SDS_P2;PMS_P1;PMS_P2;Temp;Humidity;BMP_temperature;BMP_pressure;BME280_temperature;BME280_humidity;BME280_pressure;Samples;Min_cycle;Max_cycle;Signal;HPM_P1;HPM_P2
2023/12/28 00:04:05;;;;;;;5.15;2.80;;;;;;;9.24;100.00;100859.25;6092854;23;20038;-93
2023/12/28 00:17:02;;;;;;;5.75;2.63;;;;;;;9.18;100.00;100857.34;6083643;23;20026;-93
2023/12/28 00:27:37;;;;;;;4.70;2.78;;;;;;;9.18;100.00;100867.75;6094294;23;20061;-93
2023/12/28 00:31:11;;;;;;;;;;;;;;;;;;;;;
2023/12/28 00:48:14;;;;;;;6.00;3.58;;;;;;;9.15;100.00;100882.34;6005929;23;20110;-92
2023/12/28 00:54:53;;;;;;;5.57;3.17;;;;;;;9.17;100.00;100893.69;5879570;24;20097;-92
2023/12/28 01:02:02;;;;;;;5.88;3.33;;;;;;;9.15;100.00;100913.53;5878859;24;20058;-93
2023/12/28 01:08:15;;;;;;;5.55;3.30;;;;;;;9.17;100.00;100904.97;5914420;24;20422;-92
2023/12/28 01:15:21;;;;;;;;;;;;;;;;;;;;;
2023/12/28 01:18:11;;;;;;;5.70;3.30;;;;;;;9.19;100.00;100920.59;5933639;24;20420;-93
2023/12/28 01:28:16;;;;;;;5.32;3.13;;;;;;;9.20;100.00;100930.19;6035823;23;20095;-93
2023/12/28 01:31:00;;;;;;;5.55;3.30;;;;;;;9.22;100.00;100920.69;6034394;23;20458;-92
2023/12/28 02:02:00;;;;;;;6.68;3.10;;;;;;;9.21;100.00;100947.53;6008514;23;20007;-92
2023/12/28 02:19:03;;;;;;;5.80;3.00;;;;;;;9.15;100.00;100945.66;5966323;23;20071;-92
2023/12/28 02:42:32;;;;;;;6.20;2.78;;;;;;;9.08;100.00;100930.69;5924282;24;19915;-93
2023/12/28 02:46:11;;;;;;;5.97;2.78;;;;;;;9.09;100.00;100924.63;5897879;24;20035;-93
2023/12/28 02:56:46;;;;;;;7.50;3.05;;;;;;;9.15;100.00;100930.06;5773125;24;20022;-93
2023/12/28 02:59:50;;;;;;;5.18;2.70;;;;;;;9.15;100.00;100930.06;5865970;24;20033;-92
2023/12/28 03:03:15;;;;;;;;;;;;;;;;;;;;;
2023/12/28 03:06:26;;;;;;;6.95;2.97;;;;;;;9.14;100.00;100911.78;5843981;24;20093;-93
2023/12/28 03:09:59;;;;;;;;;;;;;;;;;;;;;
2023/12/28 03:27:02;;;;;;;6.35;2.47;;;;;;;9.19;100.00;100921.47;6032219;23;20034;-93
2023/12/28 03:44:12;;;;;;;;;;;;;;;;;;;;;
2023/12/28 04:05:01;;;;;;;7.55;2.10;;;;;;;9.51;100.00;100924.16;6036830;23;20022;-93
2023/12/28 04:36:18;;;;;;;;;;;;;;;;;;;;;
2023/12/28 05:30:20;;;;;;;8.60;2.28;;;;;;;9.76;100.00;100945.66;6050525;23;20018;-92
2023/12/28 05:47:04;;;;;;;7.50;2.42;;;;;;;9.65;100.00;100942.78;6063209;23;20099;-93
2023/12/28 05:50:36;;;;;;;;;;;;;;;;;;;;;
2023/12/28 05:57:34;;;;;;;6.82;1.98;;;;;;;9.69;100.00;100962.84;6093561;23;20576;-93
2023/12/28 06:01:00;;;;;;;;;;;;;;;;;;;;;
2023/12/28 06:04:23;;;;;;;;;;;;;;;;;;;;;
2023/12/28 06:08:00;;;;;;;8.75;2.35;;;;;;;9.66;100.00;100978.38;6093189;23;20077;-93
2023/12/28 06:18:01;;;;;;;9.52;2.13;;;;;;;9.77;100.00;100970.88;5924356;24;20110;-93
2023/12/28 06:21:11;;;;;;;;;;;;;;;;;;;;;
2023/12/28 06:27:00;;;;;;;8.23;2.38;;;;;;;9.77;100.00;100978.66;5945555;24;20027;-94
2023/12/28 06:44:38;;;;;;;;;;;;;;;;;;;;;
2023/12/28 06:48:33;;;;;;;;;;;;;;;;;;;;;
2023/12/28 06:59:01;;;;;;;8.90;2.22;;;;;;;9.74;100.00;100997.66;6136975;23;20033;-94
2023/12/28 07:25:26;;;;;;;8.20;2.60;;;;;;;9.60;100.00;101018.91;6033164;23;20062;-92
2023/12/28 07:46:09;;;;;;;8.88;2.25;;;;;;;9.56;100.00;101042.25;6088868;23;20006;-92
2023/12/28 07:49:30;;;;;;;8.77;2.08;;;;;;;9.56;100.00;101055.25;5979846;23;20145;-93
2023/12/28 07:52:47;;;;;;;;;;;;;;;;;;;;;
2023/12/28 07:55:55;;;;;;;;;;;;;;;;;;;;;
2023/12/28 08:02:17;;;;;;;10.57;2.22;;;;;;;9.64;100.00;101065.00;5948453;24;20012;-93
2023/12/28 08:18:55;;;;;;;13.18;2.30;;;;;;;9.69;100.00;101095.53;6005120;23;20074;-94
2023/12/28 08:22:15;;;;;;;11.60;2.42;;;;;;;9.69;100.00;101086.84;5980021;23;20012;-92
2023/12/28 08:26:00;;;;;;;9.15;2.35;;;;;;;9.70;100.00;101065.19;6031759;23;20007;-94
2023/12/28 08:39:01;;;;;;;9.27;1.90;;;;;;;9.74;100.00;101070.53;6034944;23;20027;-93
2023/12/28 08:42:03;;;;;;;13.63;2.72;;;;;;;9.78;100.00;101074.13;6004507;23;20076;-93
2023/12/28 09:02:30;;;;;;;8.48;2.05;;;;;;;9.85;100.00;101107.31;6017082;23;20597;-93
2023/12/28 09:37:24;;;;;;;;;;;;;;;;;;;;;
2023/12/28 09:40:48;;;;;;;10.13;1.65;;;;;;;9.89;100.00;101135.22;6003634;23;20098;-94
2023/12/28 09:43:58;;;;;;;10.35;2.42;;;;;;;9.90;100.00;101152.56;5978303;23;20020;-93
2023/12/28 09:54:15;;;;;;;9.48;1.90;;;;;;;9.91;100.00;101156.06;6003353;23;20067;-94
2023/12/28 09:57:35;;;;;;;11.80;2.38;;;;;;;9.91;100.00;101167.34;5975385;24;20008;-94
2023/12/28 10:00:32;;;;;;;;;;;;;;;;;;;;;
2023/12/28 10:03:01;;;;;;;14.18;2.53;;;;;;;9.92;100.00;101170.84;5973957;24;20106;-94
2023/12/28 10:10:15;;;;;;;;;;;;;;;;;;;;;
2023/12/28 10:13:48;;;;;;;;;;;;;;;;;;;;;
2023/12/28 10:20:35;;;;;;;;;;;;;;;;;;;;;
2023/12/28 10:23:36;;;;;;;12.93;2.53;;;;;;;10.00;100.00;101174.56;5910139;23;20103;-93
2023/12/28 10:33:01;;;;;;;10.20;2.13;;;;;;;10.06;100.00;101166.06;5981001;23;20757;-93
2023/12/28 10:36:14;;;;;;;10.18;2.35;;;;;;;10.10;100.00;101167.94;5980955;23;20076;-93
2023/12/28 10:39:15;;;;;;;;;;;;;;;;;;;;;
2023/12/28 10:42:37;;;;;;;8.77;2.05;;;;;;;10.13;100.00;101159.34;5948803;24;20092;-93
2023/12/28 10:52:43;;;;;;;10.70;2.50;;;;;;;10.16;100.00;101149.00;6034754;23;20066;-93
2023/12/28 10:59:27;;;;;;;13.40;2.60;;;;;;;10.26;100.00;101154.53;6073318;23;20366;-92
2023/12/28 11:02:24;;;;;;;;;;;;;;;;;;;;;
2023/12/28 11:05:06;;;;;;;7.82;1.92;;;;;;;10.29;100.00;101165.91;6034400;23;20067;-92
2023/12/28 11:07:58;;;;;;;;;;;;;;;;;;;;;
2023/12/28 11:11:08;;;;;;;13.23;2.70;;;;;;;10.30;100.00;101133.78;6033631;23;20079;-93
2023/12/28 11:24:27;;;;;;;;;;;;;;;;;;;;;
2023/12/28 11:30:18;;;;;;;12.43;2.15;;;;;;;10.39;100.00;101118.47;6003909;23;20030;-93
2023/12/28 11:33:32;;;;;;;12.00;2.55;;;;;;;10.37;100.00;101121.03;5980144;23;20015;-92
2023/12/28 11:39:02;;;;;;;10.82;2.30;;;;;;;10.36;100.00;101113.19;6004429;23;20470;-93
2023/12/28 11:41:36;;;;;;;9.50;2.15;;;;;;;10.36;100.00;101113.19;5983014;23;20072;-93
2023/12/28 11:44:08;;;;;;;13.10;2.60;;;;;;;10.33;100.00;101105.25;6032609;23;20018;-93
2023/12/28 11:46:51;;;;;;;13.00;2.40;;;;;;;10.34;100.00;101094.91;6037299;23;20086;-93
2023/12/28 11:50:00;;;;;;;9.95;2.60;;;;;;;10.35;100.00;101101.00;6039246;23;20077;-93
2023/12/28 11:52:31;;;;;;;;;;;;;;;10.39;100.00;101105.44;6036208;23;20019;-93
2023/12/28 11:55:17;;;;;;;14.70;3.20;;;;;;;10.34;100.00;101101.81;6062666;23;20390;-93
2023/12/28 11:57:48;;;;;;;11.23;2.70;;;;;;;10.32;100.00;101096.53;6038317;23;20038;-93
2023/12/28 12:00:26;;;;;;;10.90;2.60;;;;;;;10.33;100.00;101100.03;6038885;23;20014;-93
2023/12/28 12:03:00;;;;;;;11.73;2.67;;;;;;;10.30;100.00;101093.00;6039247;23;20007;-94
2023/12/28 12:05:40;;;;;;;14.88;3.08;;;;;;;10.31;100.00;101094.78;6038748;23;20018;-93
2023/12/28 12:08:32;;;;;;;12.77;2.50;;;;;;;10.31;100.00;101096.50;6039171;23;20010;-93
2023/12/28 12:11:31;;;;;;;10.32;2.75;;;;;;;10.32;100.00;101095.66;6037351;23;20050;-92
2023/12/28 12:14:12;;;;;;;;;;;;;;;;;;;;;
2023/12/28 12:17:12;;;;;;;;;;;;;;;;;;;;;
2023/12/28 12:19:57;;;;;;;13.40;2.33;;;;;;;10.28;100.00;101086.84;6035632;23;20082;-93
2023/12/28 12:22:28;;;;;;;17.30;3.03;;;;;;;10.30;100.00;101079.09;6010377;23;20090;-93
2023/12/28 12:25:03;;;;;;;10.02;2.55;;;;;;;10.28;100.00;101081.66;6015797;23;20014;-94
2023/12/28 12:28:03;;;;;;;13.35;2.67;;;;;;;10.30;100.00;101066.06;6009748;23;20014;-93
2023/12/28 12:31:01;;;;;;;10.80;2.72;;;;;;;10.30;100.00;101064.38;6035687;23;20035;-95
2023/12/28 12:33:50;;;;;;;9.30;2.30;;;;;;;10.31;100.00;101060.03;6010302;23;20019;-93
2023/12/28 12:36:50;;;;;;;12.88;2.25;;;;;;;10.29;100.00;101060.00;6009270;23;20012;-93
2023/12/28 12:39:36;;;;;;;14.45;2.53;;;;;;;10.26;100.00;101047.75;6009813;23;20011;-94
2023/12/28 12:42:20;;;;;;;11.07;2.60;;;;;;;10.29;100.00;101062.59;6009762;23;20013;-93
2023/12/28 12:44:53;;;;;;;12.55;2.38;;;;;;;10.28;100.00;101055.59;6010158;23;20007;-93
2023/12/28 12:48:10;;;;;;;12.15;2.78;;;;;;;10.31;100.00;101068.75;6003535;23;20007;-93
2023/12/28 12:51:08;;;;;;;11.77;2.33;;;;;;;10.27;100.00;101059.06;6074484;23;20004;-93
2023/12/28 12:54:13;;;;;;;14.27;2.67;;;;;;;10.29;100.00;101065.19;5985366;23;20012;-93
2023/12/28 12:57:00;;;;;;;11.32;2.20;;;;;;;10.30;100.00;101069.56;6103218;23;20011;-93
2023/12/28 12:59:39;;;;;;;10.82;3.10;;;;;;;10.28;100.00;101055.59;5981051;23;20011;-93
2023/12/28 13:02:19;;;;;;;11.13;2.83;;;;;;;10.31;100.00;101068.75;6104384;23;20011;-93
2023/12/28 13:04:53;;;;;;;13.77;3.10;;;;;;;10.29;100.00;101059.13;6103781;23;20458;-94
2023/12/28 13:07:42;;;;;;;15.70;2.65;;;;;;;10.27;100.00;101065.16;6103851;23;20024;-93
2023/12/28 13:10:21;;;;;;;8.70;2.45;;;;;;;10.30;100.00;101058.25;6004285;23;20047;-94
2023/12/28 13:12:55;;;;;;;14.68;2.95;;;;;;;10.32;100.00;101051.38;6103820;23;20015;-93
2023/12/28 13:15:33;;;;;;;13.02;2.17;;;;;;;10.31;100.00;101057.41;6103185;23;20007;-93
2023/12/28 13:18:32;;;;;;;13.82;2.63;;;;;;;10.33;100.00;101056.63;6055228;23;20471;-93
2023/12/28 13:21:12;;;;;;;16.88;2.90;;;;;;;10.33;100.00;101054.03;6182774;23;20021;-93
2023/12/28 13:23:51;;;;;;;11.35;2.50;;;;;;;10.31;100.00;101040.09;6184032;23;20416;-93
2023/12/28 13:29:29;;;;;;;13.82;2.70;;;;;;;10.33;100.00;101042.75;6147021;23;20016;-93
2023/12/28 13:32:04;;;;;;;11.50;2.25;;;;;;;10.33;100.00;101032.31;6183919;23;20091;-93
2023/12/28 13:34:56;;;;;;;12.68;2.47;;;;;;;10.36;100.00;101040.25;6184340;23;20004;-93
2023/12/28 13:37:45;;;;;;;10.95;2.35;;;;;;;10.36;100.00;101037.66;6183644;23;19997;-93
2023/12/28 13:40:31;;;;;;;13.10;2.70;;;;;;;10.38;100.00;101030.75;6183864;23;20001;-93
2023/12/28 13:43:10;;;;;;;14.52;2.55;;;;;;;10.38;100.00;101022.94;6183256;23;20008;-93
2023/12/28 13:46:00;;;;;;;;;;;;;;;10.43;100.00;101023.94;6184462;23;20020;-92
2023/12/28 13:48:31;;;;;;;9.25;2.05;;;;;;;10.39;100.00;101020.34;6208428;23;19908;-93
2023/12/28 13:51:05;;;;;;;13.82;2.72;;;;;;;10.41;100.00;101028.22;6187408;23;20036;-92
2023/12/28 13:53:40;;;;;;;9.07;2.35;;;;;;;10.37;100.00;101008.13;6186746;23;20452;-93
2023/12/28 13:56:10;;;;;;;13.80;2.58;;;;;;;10.39;100.00;101022.09;6186955;23;20012;-93
2023/12/28 13:58:42;;;;;;;10.77;2.47;;;;;;;10.37;100.00;101019.44;6187007;23;20008;-93
2023/12/28 14:01:10;;;;;;;12.68;2.40;;;;;;;10.38;100.00;101020.31;6186693;23;20032;-93
2023/12/28 14:03:56;;;;;;;12.13;2.60;;;;;;;10.38;100.00;101031.59;6187312;23;20008;-92
2023/12/28 14:06:43;;;;;;;;;;;;;;;;;;;;;
2023/12/28 14:09:09;;;;;;;12.23;2.40;;;;;;;10.36;100.00;101020.28;6187073;23;20084;-93
2023/12/28 14:11:55;;;;;;;8.65;2.17;;;;;;;10.40;100.00;101034.28;6187136;23;20033;-94
2023/12/28 14:14:45;;;;;;;10.13;2.40;;;;;;;10.40;100.00;101032.56;6187241;23;20088;-93
2023/12/28 14:17:19;;;;;;;9.90;2.35;;;;;;;10.35;100.00;101025.44;6187047;23;20024;-94
2023/12/28 14:19:48;;;;;;;9.43;2.22;;;;;;;10.38;100.00;101025.53;6186978;23;20322;-93
2023/12/28 14:22:17;;;;;;;12.70;2.42;;;;;;;10.35;100.00;101025.44;6187536;23;20015;-93
2023/12/28 14:25:00;;;;;;;11.00;2.28;;;;;;;10.37;100.00;101023.75;6186672;23;20009;-93
2023/12/28 14:27:47;;;;;;;11.32;2.40;;;;;;;10.34;100.00;101024.59;6211746;23;20013;-93
2023/12/28 14:30:26;;;;;;;14.23;2.70;;;;;;;10.37;100.00;101029.88;6186804;23;20044;-93
2023/12/28 14:33:08;;;;;;;17.33;2.90;;;;;;;10.35;100.00;101020.25;6186399;23;20013;-92
2023/12/28 14:35:43;;;;;;;13.07;1.95;;;;;;;10.35;100.00;101030.66;6187064;23;20424;-92
2023/12/28 14:38:13;;;;;;;10.48;2.28;;;;;;;10.36;100.00;101027.22;6186476;23;20348;-93
2023/12/28 14:40:49;;;;;;;10.90;2.25;;;;;;;10.37;99.94;101028.97;6186768;23;20377;-94
2023/12/28 14:43:43;;;;;;;10.82;2.20;;;;;;;10.34;100.00;101029.78;6186624;23;20084;-93
2023/12/28 14:46:18;;;;;;;12.63;2.72;;;;;;;10.35;99.32;101022.84;6176793;23;20757;-93
2023/12/28 14:49:02;;;;;;;11.90;2.42;;;;;;;10.37;99.68;101023.75;6186552;23;20007;-94
2023/12/28 14:51:28;;;;;;;9.95;2.03;;;;;;;10.36;99.90;101020.28;6186128;23;20543;-94
2023/12/28 14:53:54;;;;;;;10.88;2.30;;;;;;;10.35;98.87;101010.69;6187155;23;20008;-93
2023/12/28 14:56:20;;;;;;;12.52;2.20;;;;;;;10.34;98.62;101019.38;6186807;23;20467;-93
2023/12/28 14:58:46;;;;;;;11.68;2.28;;;;;;;10.33;98.94;101012.34;6187173;23;20021;-93
2023/12/28 15:01:13;;;;;;;11.30;2.50;;;;;;;10.31;98.81;101014.06;6186375;23;20088;-94
2023/12/28 15:03:39;;;;;;;13.48;2.28;;;;;;;10.31;98.92;101018.34;6185887;23;20001;-92
2023/12/28 15:06:05;;;;;;;9.93;1.98;;;;;;;10.30;98.82;101021.78;6185430;23;20092;-93
2023/12/28 15:08:31;;;;;;;11.70;2.20;;;;;;;10.29;99.34;101028.72;6185488;23;20044;-93
2023/12/28 15:10:57;;;;;;;11.23;2.42;;;;;;;10.29;99.01;101014.84;6185161;23;20005;-94
2023/12/28 15:13:23;;;;;;;14.23;2.40;;;;;;;10.27;99.00;101017.41;6184965;23;20009;-93
2023/12/28 15:15:50;;;;;;;7.50;1.85;;;;;;;10.25;98.52;101019.97;6185453;23;20438;-94
2023/12/28 15:18:17;;;;;;;11.10;2.22;;;;;;;10.25;98.76;101011.25;6164784;23;20019;-93
2023/12/28 15:20:46;;;;;;;12.10;2.20;;;;;;;10.26;98.14;101015.63;6190269;23;20361;-93
2023/12/28 15:23:12;;;;;;;10.52;2.25;;;;;;;10.24;98.55;101022.53;6165058;23;20007;-93
2023/12/28 15:25:37;;;;;;;7.85;1.88;;;;;;;10.23;98.44;101020.75;6165138;23;20013;-93
2023/12/28 15:28:03;;;;;;;13.77;2.47;;;;;;;10.22;98.40;101016.38;6164390;23;20082;-93
2023/12/28 15:30:29;;;;;;;11.32;2.40;;;;;;;10.20;98.51;101018.06;6189571;23;20006;-93
2023/12/28 15:32:54;;;;;;;10.00;2.58;;;;;;;10.20;98.56;101005.06;6164324;23;20019;-93
2023/12/28 15:35:20;;;;;;;12.82;2.22;;;;;;;10.18;98.15;101002.41;6189163;23;20434;-93
2023/12/28 15:37:45;;;;;;;13.52;2.92;;;;;;;10.18;97.76;101009.31;6064349;23;20072;-93
2023/12/28 15:40:11;;;;;;;11.00;2.20;;;;;;;10.17;97.58;101005.84;6164284;23;20069;-93
2023/12/28 15:42:36;;;;;;;12.40;2.40;;;;;;;10.15;97.63;101001.44;6164638;23;20010;-93
2023/12/28 15:45:02;;;;;;;13.95;3.03;;;;;;;10.15;97.31;100999.69;6189301;23;20117;-93
2023/12/28 15:47:28;;;;;;;9.77;2.00;;;;;;;10.14;98.04;101003.16;6164513;23;20003;-93
2023/12/28 15:49:54;;;;;;;11.40;2.50;;;;;;;10.13;97.58;101008.31;6164147;23;20018;-94
2023/12/28 15:52:19;;;;;;;11.90;2.10;;;;;;;10.12;97.61;101011.75;6164818;23;20042;-93
2023/12/28 15:54:45;;;;;;;9.55;2.17;;;;;;;10.10;97.77;101003.91;6064422;23;20003;-93
2023/12/28 15:57:10;;;;;;;9.30;2.05;;;;;;;10.10;98.13;100999.56;6190029;23;20017;-93
2023/12/28 15:59:36;;;;;;;8.77;2.15;;;;;;;10.09;98.34;100997.81;6188834;23;20041;-93
2023/12/28 16:02:01;;;;;;;10.18;2.38;;;;;;;10.10;97.34;100983.94;6189426;23;20034;-94
2023/12/28 16:04:26;;;;;;;9.13;2.05;;;;;;;10.10;98.37;100998.69;6164138;23;20099;-92
2023/12/28 16:06:52;;;;;;;9.15;2.05;;;;;;;10.09;98.28;100991.72;6189237;23;20011;-93
2023/12/28 16:09:17;;;;;;;12.35;2.22;;;;;;;10.08;98.41;100995.19;6189746;23;20006;-92
2023/12/28 16:11:43;;;;;;;12.32;2.88;;;;;;;10.07;97.91;100999.50;6164557;23;20011;-94
2023/12/28 16:14:08;;;;;;;10.80;2.28;;;;;;;10.08;97.92;100995.19;6163636;23;20010;-94
2023/12/28 16:16:34;;;;;;;11.02;3.13;;;;;;;10.07;97.74;100991.69;6164588;23;20007;-94
2023/12/28 16:19:00;;;;;;;10.02;2.28;;;;;;;10.08;98.15;100979.56;6188771;23;20041;-94
2023/12/28 16:21:26;;;;;;;10.38;2.20;;;;;;;10.07;98.00;100983.00;6189839;23;20009;-94
2023/12/28 16:23:51;;;;;;;11.55;2.30;;;;;;;10.06;98.21;100991.63;6164951;23;20057;-93
2023/12/28 16:26:18;;;;;;;8.02;2.15;;;;;;;10.05;98.27;100984.66;6189256;23;20088;-93
2023/12/28 16:28:44;;;;;;;10.88;2.10;;;;;;;10.04;97.99;100977.72;6164694;23;20006;-94
2023/12/28 16:31:09;;;;;;;7.70;2.17;;;;;;;10.04;98.02;100980.31;6164365;23;20068;-94
2023/12/28 16:33:35;;;;;;;10.73;1.92;;;;;;;10.04;97.96;100982.91;6164312;23;20010;-93
2023/12/28 16:36:01;;;;;;;14.30;2.45;;;;;;;10.01;98.22;100977.63;6164707;23;20003;-94
2023/12/28 16:38:27;;;;;;;11.32;2.50;;;;;;;10.02;98.15;100984.56;6188911;23;20030;-93
2023/12/28 16:40:52;;;;;;;8.88;2.55;;;;;;;10.00;98.45;100978.47;6163304;23;20018;-93
2023/12/28 16:43:18;;;;;;;10.90;2.05;;;;;;;9.99;98.11;100979.28;6188798;23;20003;-93
2023/12/28 16:45:43;;;;;;;12.30;2.53;;;;;;;9.98;98.07;100972.31;6064384;23;20760;-93
2023/12/28 16:48:08;;;;;;;10.02;2.17;;;;;;;9.96;98.17;100974.88;6164173;23;20007;-93
2023/12/28 16:50:38;;;;;;;9.43;2.28;;;;;;;9.97;98.30;100975.78;6064106;23;20003;-93
2023/12/28 16:53:03;;;;;;;12.07;2.17;;;;;;;9.94;98.70;100967.88;6164086;23;20061;-94
2023/12/28 16:55:29;;;;;;;7.32;2.03;;;;;;;9.93;98.46;100969.59;6063965;23;20007;-93
2023/12/28 16:57:55;;;;;;;8.63;2.03;;;;;;;9.94;98.17;100981.75;6064262;23;20030;-94
2023/12/28 17:00:22;;;;;;;10.82;2.35;;;;;;;9.92;98.41;100973.91;6164317;23;20002;-94
2023/12/28 17:02:48;;;;;;;8.40;1.90;;;;;;;9.91;98.36;100982.56;6064071;23;20033;-93
2023/12/28 17:05:13;;;;;;;9.93;2.28;;;;;;;9.91;98.43;100972.16;6189100;23;20022;-94
2023/12/28 17:07:39;;;;;;;10.98;2.63;;;;;;;9.92;98.13;100983.44;6188662;23;20003;-94
2023/12/28 17:10:05;;;;;;;14.32;2.65;;;;;;;9.92;97.91;100963.50;6163808;23;20014;-93
2023/12/28 17:12:43;;;;;;;11.02;2.40;;;;;;;9.92;98.24;100973.91;6188878;23;20030;-93
2023/12/28 17:15:09;;;;;;;9.43;2.00;;;;;;;9.91;98.15;100968.66;6189017;23;20003;-91
2023/12/28 17:17:36;;;;;;;10.52;2.30;;;;;;;9.91;98.10;100971.28;6064265;23;20426;-93
2023/12/28 17:20:05;;;;;;;7.85;1.77;;;;;;;9.90;98.05;100967.75;6064078;23;20003;-94
2023/12/28 17:22:44;;;;;;;7.78;2.53;;;;;;;9.88;97.88;100964.25;6063424;23;20006;-94
2023/12/28 17:25:29;;;;;;;11.97;2.10;;;;;;;9.88;98.06;100960.78;6188681;23;20029;-94
2023/12/28 17:27:56;;;;;;;8.55;1.85;;;;;;;9.88;98.27;100964.25;6189006;23;20030;-94
2023/12/28 17:30:26;;;;;;;12.18;2.60;;;;;;;9.87;98.04;100970.28;6163618;23;20060;-94
2023/12/28 17:32:56;;;;;;;9.73;2.10;;;;;;;9.86;98.35;100968.53;6163883;23;20014;-94
2023/12/28 17:35:22;;;;;;;9.18;2.03;;;;;;;9.87;98.05;100967.69;6063950;23;20002;-93
2023/12/28 17:37:48;;;;;;;8.48;2.45;;;;;;;9.88;98.26;100964.25;6163988;23;20036;-93
2023/12/28 17:40:20;;;;;;;9.57;2.20;;;;;;;9.86;98.38;100949.44;6189102;23;19999;-93
2023/12/28 17:42:48;;;;;;;11.68;2.47;;;;;;;9.87;98.45;100953.81;6164135;23;20449;-93
2023/12/28 17:45:22;;;;;;;12.95;2.33;;;;;;;9.87;98.29;100949.47;6063838;23;20007;-93
2023/12/28 17:48:07;;;;;;;11.20;2.58;;;;;;;9.91;98.19;100961.72;6188614;23;20604;-94
2023/12/28 17:50:36;;;;;;;10.40;2.45;;;;;;;9.92;97.93;100952.19;6163966;23;20094;-93
2023/12/28 17:53:02;;;;;;;10.00;2.20;;;;;;;9.94;98.02;100944.47;6187975;23;20010;-93
2023/12/28 17:55:27;;;;;;;9.45;2.20;;;;;;;9.94;97.87;100949.66;6162957;23;20141;-94
2023/12/28 17:57:53;;;;;;;8.93;2.10;;;;;;;9.94;97.97;100940.13;6164068;23;20006;-94
2023/12/28 18:00:18;;;;;;;10.27;2.10;;;;;;;9.95;98.00;100954.91;6188514;23;20053;-94
2023/12/28 18:02:44;;;;;;;10.45;2.20;;;;;;;9.96;97.76;100947.97;6166640;23;20007;-94
2023/12/28 18:05:09;;;;;;;12.00;2.92;;;;;;;9.96;98.17;100947.97;6064710;23;20007;-94
2023/12/28 18:07:35;;;;;;;8.43;2.45;;;;;;;9.97;97.38;100939.34;6188205;23;21961;-94
2023/12/28 18:10:03;;;;;;;9.98;2.00;;;;;;;9.98;97.99;100951.47;6188596;23;20102;-94
2023/12/28 18:12:28;;;;;;;10.10;2.50;;;;;;;9.98;97.59;100946.28;6188937;23;20003;-94
2023/12/28 18:14:54;;;;;;;10.32;2.47;;;;;;;9.96;97.91;100938.44;6188803;23;20007;-94
2023/12/28 18:17:19;;;;;;;10.43;2.13;;;;;;;9.97;97.74;100944.53;6163670;23;20450;-94
2023/12/28 18:19:45;;;;;;;7.85;1.98;;;;;;;9.97;97.58;100944.53;6063217;23;20018;-94
2023/12/28 18:22:11;;;;;;;8.82;2.15;;;;;;;9.96;97.30;100943.63;6163627;23;20013;-94
2023/12/28 18:24:37;;;;;;;7.95;1.77;;;;;;;9.96;97.44;100940.16;6163695;23;20093;-94
2023/12/28 18:27:02;;;;;;;10.48;2.00;;;;;;;9.96;97.61;100940.16;6188599;23;20006;-94
2023/12/28 18:29:28;;;;;;;7.85;1.98;;;;;;;9.96;97.64;100946.25;6162832;23;20045;-93
2023/12/28 18:31:53;;;;;;;10.13;2.20;;;;;;;9.95;97.56;100952.31;6188074;23;20427;-94
2023/12/28 18:34:19;;;;;;;7.80;2.25;;;;;;;9.97;97.68;100949.75;6188004;23;20438;-93
2023/12/28 18:36:45;;;;;;;9.95;2.80;;;;;;;9.97;97.00;100940.19;6163827;23;20017;-94
2023/12/28 18:39:15;;;;;;;10.45;2.50;;;;;;;9.98;97.53;100936.78;6188269;23;20465;-93
2023/12/28 18:41:41;;;;;;;8.95;2.38;;;;;;;10.00;97.45;100934.19;6162682;23;20333;-94
2023/12/28 18:44:07;;;;;;;9.10;2.35;;;;;;;10.00;97.19;100932.47;6163949;23;20067;-93
2023/12/28 18:46:32;;;;;;;9.32;2.53;;;;;;;10.01;97.04;100941.19;6164771;23;20011;-93
2023/12/28 18:48:58;;;;;;;9.15;2.35;;;;;;;10.02;97.19;100943.81;6189462;23;20007;-95
2023/12/28 18:51:35;;;;;;;8.82;2.50;;;;;;;10.02;97.27;100948.13;6164604;23;20026;-94
2023/12/28 18:54:30;;;;;;;14.20;4.32;;;;;;;10.02;97.51;100942.91;6163666;23;20006;-93
2023/12/28 19:01:04;;;;;;;9.95;2.35;;;;;;;10.03;97.74;100940.34;6183052;23;20105;-93
2023/12/28 19:03:50;;;;;;;7.57;2.25;;;;;;;9.99;97.14;100927.22;6158053;23;20899;-94
2023/12/28 19:10:03;;;;;;;8.00;1.90;;;;;;;10.04;97.22;100946.47;6153910;23;20009;-94
2023/12/28 19:17:00;;;;;;;8.27;2.50;;;;;;;10.02;97.88;100925.59;6095330;23;20096;-93
2023/12/28 19:20:00;;;;;;;11.50;2.88;;;;;;;10.01;97.47;100916.03;6040748;23;20026;-93
2023/12/28 19:26:59;;;;;;;11.65;2.65;;;;;;;10.03;98.01;100923.88;6066300;23;20392;-93
2023/12/28 19:33:29;;;;;;;11.43;2.97;;;;;;;10.01;98.43;100917.75;6183536;23;20005;-94
2023/12/28 19:36:11;;;;;;;10.18;2.50;;;;;;;9.97;98.43;100908.09;6030079;23;20007;-94
2023/12/28 19:39:35;;;;;;;6.80;2.20;;;;;;;9.99;98.60;100917.69;6008674;23;20046;-93
2023/12/28 19:46:20;;;;;;;8.95;2.28;;;;;;;9.97;98.78;100908.97;6004179;23;20038;-93
2023/12/28 19:53:13;;;;;;;;;;;;;;;;;;;;;
2023/12/28 19:56:11;;;;;;;18.70;6.93;;;;;;;9.91;99.24;100901.88;6034879;23;20082;-93
2023/12/28 20:02:11;;;;;;;;;;;;;;;;;;;;;
2023/12/28 20:08:06;;;;;;;10.70;3.47;;;;;;;9.85;99.50;100872.22;5948354;24;20559;-93
2023/12/28 20:11:01;;;;;;;7.70;2.75;;;;;;;9.85;99.73;100885.22;6064711;23;20007;-93
2023/12/28 20:17:54;;;;;;;7.63;2.95;;;;;;;9.86;99.85;100873.94;6025523;23;20060;-94
2023/12/28 20:27:57;;;;;;;;;;;;;;;;;;;;;
2023/12/28 20:40:42;;;;;;;9.75;2.65;;;;;;;9.80;100.00;100846.03;6036769;23;20443;-93
2023/12/28 20:46:40;;;;;;;9.30;2.63;;;;;;;9.77;100.00;100856.38;6034707;23;20014;-94
2023/12/28 20:53:38;;;;;;;;;;;;;;;;;;;;;
2023/12/28 21:03:18;;;;;;;6.65;2.55;;;;;;;9.80;100.00;100856.44;6122455;23;20069;-93
2023/12/28 21:06:25;;;;;;;8.30;2.40;;;;;;;9.81;100.00;100858.22;6123041;23;20030;-94
2023/12/28 21:38:11;;;;;;;;;;;;;;;;;;;;;
2023/12/28 21:40:51;;;;;;;10.60;2.63;;;;;;;9.88;100.00;100826.31;6123068;23;20424;-94
2023/12/28 21:44:01;;;;;;;7.47;2.25;;;;;;;9.90;100.00;100827.22;6098083;23;20085;-95
2023/12/28 21:46:58;;;;;;;9.18;2.45;;;;;;;9.93;100.00;100823.81;6162986;23;20015;-94
2023/12/28 21:53:43;;;;;;;5.90;2.08;;;;;;;9.94;100.00;100814.31;6123127;23;20450;-94
2023/12/28 22:19:47;;;;;;;;;;;;;;;;;;;;;
2023/12/28 22:32:41;;;;;;;9.45;1.95;;;;;;;10.04;100.00;100801.56;6062795;23;20042;-95
2023/12/28 22:56:49;;;;;;;;;;;;;;;;;;;;;
2023/12/28 23:00:18;;;;;;;6.25;1.60;;;;;;;10.03;100.00;100797.19;6004778;23;20086;-95
2023/12/28 23:26:04;;;;;;;7.57;2.00;;;;;;;10.16;100.00;100795.75;6123968;23;20465;-96
2023/12/28 23:29:32;;;;;;;;;;;;;;;;;;;;;
2023/12/28 23:46:25;;;;;;;10.55;1.95;;;;;;;10.17;100.00;100770.63;6067381;23;20086;-95
2023/12/28 23:52:53;;;;;;;;;;;;;;;;;;;;;
2023/12/28 23:56:02;;;;;;;8.65;1.85;;;;;;;10.19;100.00;100802.78;6038011;23;20546;-94
2023/12/28 23:59:15;;;;;;;8.77;2.15;;;;;;;10.19;100.00;100784.56;6036596;23;20014;-95
